Time;durP1;ratioP1;P1;durP2;ratioP2;P2;SDS_P1;SDS_P2;PMS_P1;PMS_P2;Temp;Humidity;BMP_temperature;BMP_pressure;BME280_temperature;BME280_humidity;BME280_pressure;Samples;Min_cycle;Max_cycle;Signal;HPM_P1;HPM_P2
2023/01/22 00:01:02;;;;;;;392.98;275.52;;;;;;;23.65;33.50;103058.13;5095613;28;20031;-41
2023/01/22 00:03:31;;;;;;;390.15;274.88;;;;;;;23.64;33.52;103051.06;5095850;28;20028;-41
2023/01/22 00:05:58;;;;;;;388.95;270.10;;;;;;;23.63;33.40;103049.28;5095869;28;20487;-43
2023/01/22 00:08:27;;;;;;;387.30;270.70;;;;;;;23.67;33.52;103043.34;5095581;28;20046;-40
2023/01/22 00:10:56;;;;;;;398.70;277.00;;;;;;;23.69;33.43;103044.31;5095535;28;20567;-41
2023/01/22 00:13:26;;;;;;;406.35;288.75;;;;;;;23.62;33.88;103039.63;5077777;28;20028;-41
2023/01/22 00:15:56;;;;;;;401.13;277.67;;;;;;;23.62;33.59;103034.38;5095503;28;20032;-41
2023/01/22 00:18:25;;;;;;;393.13;281.33;;;;;;;23.55;33.90;103030.56;5094991;28;20032;-41
2023/01/22 00:20:54;;;;;;;393.92;278.65;;;;;;;23.57;33.90;103033.25;5094827;28;20016;-40
2023/01/22 00:23:23;;;;;;;392.42;273.50;;;;;;;23.59;33.76;103035.09;5094917;28;20154;-40
2023/01/22 00:26:01;;;;;;;400.42;283.00;;;;;;;23.56;33.59;103032.38;5095459;28;20047;-41
2023/01/22 00:28:30;;;;;;;374.33;268.42;;;;;;;23.59;33.44;103032.50;5095208;28;20119;-40
2023/01/22 00:31:00;;;;;;;391.33;274.05;;;;;;;23.59;33.41;103026.38;5095383;28;20027;-41
2023/01/22 00:33:29;;;;;;;380.23;276.77;;;;;;;23.58;33.89;103030.69;5095303;28;20052;-46
2023/01/22 00:36:04;;;;;;;394.08;274.83;;;;;;;23.54;33.54;103034.00;5094903;28;20039;-40
2023/01/22 00:38:33;;;;;;;390.98;277.35;;;;;;;23.50;34.10;103026.81;5095090;28;20054;-40
2023/01/22 00:41:03;;;;;;;393.20;278.52;;;;;;;23.49;34.12;103033.81;5077104;28;20391;-41
2023/01/22 00:43:32;;;;;;;392.38;277.45;;;;;;;23.48;33.79;103026.78;5094831;28;20030;-40
2023/01/22 00:46:01;;;;;;;399.08;283.20;;;;;;;23.48;33.92;103026.78;5095214;28;20121;-42
2023/01/22 00:48:29;;;;;;;406.38;285.98;;;;;;;23.50;33.84;103027.72;5095028;28;20108;-40
2023/01/22 00:50:58;;;;;;;415.10;286.98;;;;;;;23.52;33.87;103030.41;5094730;28;20103;-43
2023/01/22 00:53:27;;;;;;;395.63;276.73;;;;;;;23.49;33.63;103018.09;5094667;28;20032;-44
2023/01/22 00:55:57;;;;;;;386.95;279.98;;;;;;;23.56;33.61;103020.97;5094621;28;20048;-41
2023/01/22 00:58:26;;;;;;;394.98;275.38;;;;;;;23.55;33.71;103017.47;5081110;28;20851;-45
2023/01/22 01:00:55;;;;;;;404.77;280.38;;;;;;;23.52;33.53;103019.94;5082724;28;20027;-44
2023/01/22 01:03:32;;;;;;;402.08;282.83;;;;;;;23.47;33.88;103006.63;5102594;28;20030;-45
2023/01/22 01:06:04;;;;;;;398.00;279.88;;;;;;;23.47;33.69;102997.88;5105894;28;20028;-49
2023/01/22 01:08:38;;;;;;;398.55;276.00;;;;;;;23.47;33.36;102995.25;5114840;28;20020;-44
2023/01/22 01:11:11;;;;;;;392.07;275.00;;;;;;;23.46;33.84;102991.75;5115000;28;20467;-42
2023/01/22 01:13:41;;;;;;;400.08;280.30;;;;;;;23.40;33.65;102987.94;5115004;28;20115;-43
2023/01/22 01:16:14;;;;;;;399.20;279.33;;;;;;;23.42;33.76;102992.41;5115193;28;20058;-40
2023/01/22 01:18:43;;;;;;;394.75;273.25;;;;;;;23.44;33.82;103000.34;5114341;28;20035;-41
2023/01/22 01:21:12;;;;;;;392.80;275.40;;;;;;;23.43;33.94;103001.16;5114784;28;20420;-40
2023/01/22 01:23:41;;;;;;;398.17;281.50;;;;;;;23.41;33.97;102993.22;5115085;28;20020;-43
2023/01/22 01:26:12;;;;;;;396.15;276.48;;;;;;;23.41;33.58;103001.09;5114502;28;20028;-42
2023/01/22 01:28:41;;;;;;;387.95;278.00;;;;;;;23.47;33.60;103000.47;5095632;28;20415;-41
2023/01/22 01:31:12;;;;;;;406.13;286.77;;;;;;;23.42;33.73;103002.88;5114732;28;20071;-43
2023/01/22 01:33:41;;;;;;;406.08;286.92;;;;;;;23.40;33.92;103004.53;5114413;28;20035;-48
2023/01/22 01:36:28;;;;;;;405.27;279.20;;;;;;;23.38;33.97;103002.69;5114394;28;20031;-42
2023/01/22 01:38:57;;;;;;;400.83;274.08;;;;;;;23.36;33.60;102998.25;5114469;28;20054;-41
2023/01/22 01:41:26;;;;;;;401.85;283.20;;;;;;;23.35;33.91;103000.78;5095997;28;20114;-44
2023/01/22 01:44:15;;;;;;;390.80;275.83;;;;;;;23.38;33.71;103000.06;5114185;28;20024;-40
2023/01/22 01:46:48;;;;;;;393.42;279.90;;;;;;;23.37;33.45;103001.75;5107911;28;20035;-41
2023/01/22 01:49:23;;;;;;;394.98;274.20;;;;;;;23.34;33.70;103002.53;5114297;28;20020;-40
2023/01/22 01:51:55;;;;;;;403.20;272.75;;;;;;;23.35;33.57;103000.78;5095856;28;20456;-42
2023/01/22 01:54:23;;;;;;;385.52;270.85;;;;;;;23.35;33.59;102987.69;5095866;28;20504;-42
2023/01/22 01:56:56;;;;;;;375.70;262.98;;;;;;;23.38;33.71;102993.09;5114317;28;20027;-42
2023/01/22 01:59:25;;;;;;;375.73;258.80;;;;;;;23.37;33.28;102991.28;5096129;28;20046;-45
2023/01/22 02:01:55;;;;;;;376.92;257.83;;;;;;;23.32;33.58;102993.69;5113827;28;20028;-46
2023/01/22 02:04:23;;;;;;;368.83;251.65;;;;;;;23.35;33.38;102999.09;5095938;28;20485;-40
2023/01/22 02:06:52;;;;;;;338.90;235.23;;;;;;;23.28;33.62;102993.47;5113765;28;20077;-44
2023/01/22 02:09:21;;;;;;;341.85;238.40;;;;;;;23.23;33.44;103005.44;5113250;28;20055;-41
2023/01/22 02:11:51;;;;;;;342.50;234.85;;;;;;;23.23;33.39;103006.34;5095757;28;20424;-45
2023/01/22 02:14:22;;;;;;;318.88;223.45;;;;;;;23.24;33.32;103007.25;5095922;28;20019;-41
2023/01/22 02:17:01;;;;;;;316.13;217.07;;;;;;;23.23;33.41;103001.13;5113729;28;20494;-42
2023/01/22 02:19:30;;;;;;;306.60;217.15;;;;;;;23.33;32.95;103005.97;5095890;28;20035;-42
2023/01/22 02:21:59;;;;;;;311.05;208.50;;;;;;;23.29;32.94;103006.63;5113871;28;20107;-42
2023/01/22 02:24:30;;;;;;;295.25;204.40;;;;;;;23.28;33.03;103017.03;5112662;28;20189;-43
2023/01/22 02:26:59;;;;;;;279.58;198.75;;;;;;;23.29;32.87;103021.47;5095086;28;20039;-46
2023/01/22 02:29:27;;;;;;;284.60;193.65;;;;;;;23.27;33.11;103024.00;5113250;28;20031;-42
2023/01/22 02:31:55;;;;;;;269.73;188.80;;;;;;;23.28;33.10;103040.63;5095535;28;20471;-45
2023/01/22 02:34:24;;;;;;;260.55;182.07;;;;;;;23.23;33.01;103037.78;5113361;28;20061;-40
2023/01/22 02:36:52;;;;;;;252.10;178.15;;;;;;;23.19;33.22;103038.41;5095355;28;20077;-40
2023/01/22 02:39:21;;;;;;;243.55;171.10;;;;;;;23.17;33.09;103040.06;5113364;28;20032;-41
2023/01/22 02:41:50;;;;;;;240.23;171.77;;;;;;;23.18;33.18;103049.69;5113206;28;20023;-43
2023/01/22 02:44:17;;;;;;;234.98;163.52;;;;;;;23.17;32.63;103043.56;5095268;28;20024;-41
2023/01/22 02:46:46;;;;;;;234.32;159.65;;;;;;;23.18;32.95;103045.34;5113448;28;20039;-40
2023/01/22 02:49:15;;;;;;;221.60;151.20;;;;;;;23.22;32.67;103051.69;5113114;28;20016;-44
2023/01/22 02:51:43;;;;;;;217.02;144.95;;;;;;;23.21;32.64;103047.28;5113419;28;20035;-42
2023/01/22 02:54:11;;;;;;;201.05;137.48;;;;;;;23.19;32.28;103043.66;5113320;28;20066;-47
2023/01/22 02:56:40;;;;;;;199.00;134.80;;;;;;;23.20;32.17;103054.22;5113468;28;20123;-42
2023/01/22 02:59:09;;;;;;;199.95;131.85;;;;;;;23.15;32.23;103057.41;5113416;28;20030;-44
2023/01/22 03:01:37;;;;;;;181.82;128.00;;;;;;;23.13;32.24;103062.56;5113067;28;20028;-41
2023/01/22 03:04:10;;;;;;;178.02;124.35;;;;;;;23.15;32.34;103055.69;5113178;28;20032;-42
2023/01/22 03:06:41;;;;;;;170.85;120.25;;;;;;;23.13;32.39;103059.03;5113221;28;20024;-41
2023/01/22 03:09:11;;;;;;;171.40;114.45;;;;;;;23.13;32.40;103064.28;5112893;28;20020;-43
2023/01/22 03:11:41;;;;;;;155.75;109.57;;;;;;;23.13;31.96;103062.56;5113396;28;20024;-41
2023/01/22 03:22:33;;;;;;;144.18;102.57;;;;;;;23.07;32.30;103067.50;5104972;28;20085;-40
2023/01/22 03:25:02;;;;;;;144.63;97.13;;;;;;;23.11;32.15;103066.84;5113020;28;20031;-40
2023/01/22 03:27:31;;;;;;;131.07;94.38;;;;;;;23.06;32.16;103078.78;5112551;28;20482;-41
2023/01/22 03:30:00;;;;;;;131.02;92.13;;;;;;;23.06;31.79;103078.78;5113222;28;20086;-40
2023/01/22 03:32:29;;;;;;;125.13;88.68;;;;;;;23.05;32.15;103069.13;5113036;28;20535;-41
2023/01/22 03:34:57;;;;;;;122.20;86.22;;;;;;;23.05;32.05;103083.13;5112950;28;20038;-41
2023/01/22 03:37:26;;;;;;;122.20;85.18;;;;;;;23.03;31.94;103084.78;5113188;28;20045;-41
2023/01/22 03:39:56;;;;;;;115.03;80.63;;;;;;;23.04;31.90;103083.94;5094795;28;20019;-42
2023/01/22 03:42:25;;;;;;;116.85;79.88;;;;;;;23.07;31.56;103085.81;5112384;28;20027;-40
2023/01/22 03:44:54;;;;;;;111.47;78.43;;;;;;;23.08;31.56;103074.53;5078367;28;20023;-40
2023/01/22 03:47:23;;;;;;;106.97;76.05;;;;;;;23.04;31.48;103067.31;5112739;28;20024;-41
2023/01/22 03:49:51;;;;;;;105.57;73.55;;;;;;;23.06;31.63;103073.53;5112622;28;20020;-42
2023/01/22 03:52:19;;;;;;;106.82;72.50;;;;;;;23.05;31.82;103076.97;5113397;28;20072;-41
2023/01/22 03:54:48;;;;;;;105.47;74.00;;;;;;;23.02;31.94;103088.22;5115831;28;20383;-44
2023/01/22 03:57:17;;;;;;;101.40;70.40;;;;;;;23.04;31.77;103094.44;5098453;28;20019;-43
2023/01/22 03:59:45;;;;;;;95.22;68.45;;;;;;;23.01;31.99;103098.59;5116293;28;20024;-44
2023/01/22 04:02:14;;;;;;;99.40;70.03;;;;;;;23.01;31.57;103099.50;5116577;28;20051;-41
2023/01/22 04:04:43;;;;;;;96.82;68.20;;;;;;;22.99;31.65;103095.91;5098218;28;20030;-43
2023/01/22 04:07:10;;;;;;;90.72;64.47;;;;;;;23.01;31.39;103093.34;5081264;28;20109;-43
2023/01/22 04:09:39;;;;;;;97.32;66.53;;;;;;;22.92;31.54;103080.69;5115943;28;20023;-45
2023/01/22 04:12:08;;;;;;;96.28;64.40;;;;;;;22.97;31.30;103096.66;5116393;28;20050;-40
2023/01/22 04:14:36;;;;;;;89.50;63.70;;;;;;;22.99;31.32;103095.91;5116129;28;20023;-43
2023/01/22 04:17:05;;;;;;;87.53;62.05;;;;;;;22.98;31.19;103090.59;5116174;28;20020;-42
2023/01/22 04:19:34;;;;;;;86.88;58.60;;;;;;;22.97;31.55;103091.41;5116345;28;20371;-40
2023/01/22 04:22:02;;;;;;;83.80;59.75;;;;;;;22.99;31.42;103090.66;5115846;28;20028;-40
2023/01/22 04:24:31;;;;;;;87.70;59.50;;;;;;;22.93;31.57;103085.09;5115545;28;20035;-41
2023/01/22 04:26:59;;;;;;;86.80;59.67;;;;;;;22.97;31.22;103083.56;5115751;28;20027;-40
2023/01/22 04:29:28;;;;;;;80.30;56.60;;;;;;;22.94;30.98;103080.78;5115634;28;20036;-43
2023/01/22 04:31:57;;;;;;;83.82;56.25;;;;;;;22.95;31.14;103086.09;5115580;28;20050;-40
2023/01/22 04:34:25;;;;;;;90.95;61.78;;;;;;;22.94;31.22;103086.03;5115926;28;20047;-40
2023/01/22 04:36:54;;;;;;;82.35;57.33;;;;;;;22.90;31.47;103093.72;5115809;28;20088;-41
2023/01/22 04:39:23;;;;;;;78.07;56.13;;;;;;;22.91;31.25;103092.88;5115391;28;20466;-42
2023/01/22 04:41:51;;;;;;;75.95;53.00;;;;;;;22.94;31.09;103091.25;5115779;28;20028;-41
2023/01/22 04:44:20;;;;;;;75.30;53.40;;;;;;;22.94;31.34;103083.41;5115513;28;20077;-42
2023/01/22 04:46:48;;;;;;;80.57;52.83;;;;;;;22.94;31.14;103083.41;5097151;28;20031;-41
2023/01/22 04:49:17;;;;;;;79.13;52.45;;;;;;;22.91;31.08;103078.91;5115367;28;20024;-40
2023/01/22 04:51:46;;;;;;;75.60;53.33;;;;;;;22.89;31.04;103076.22;5115692;28;20024;-44
2023/01/22 04:54:14;;;;;;;75.47;53.85;;;;;;;22.85;31.17;103074.25;5115113;28;20023;-43
2023/01/22 04:56:43;;;;;;;74.80;52.22;;;;;;;22.89;30.86;103081.44;5115313;28;20043;-43
2023/01/22 04:59:11;;;;;;;74.88;51.95;;;;;;;22.91;30.77;103085.03;5115462;28;20052;-40
2023/01/22 05:01:41;;;;;;;72.53;51.35;;;;;;;22.88;31.02;103082.25;5114674;28;20024;-41
2023/01/22 05:04:09;;;;;;;74.32;51.45;;;;;;;22.89;30.75;103091.91;5115178;28;20034;-40
2023/01/22 05:06:38;;;;;;;73.80;51.33;;;;;;;22.90;31.03;103096.31;5114937;28;20502;-42
2023/01/22 05:09:06;;;;;;;75.30;49.35;;;;;;;22.85;31.00;103086.44;5114729;28;20031;-43
2023/01/22 05:11:35;;;;;;;80.25;50.80;;;;;;;22.88;30.88;103087.50;5115048;28;20034;-42
2023/01/22 05:14:04;;;;;;;70.93;49.10;;;;;;;22.87;31.14;103080.47;5114828;28;20049;-42
2023/01/22 05:16:32;;;;;;;72.35;50.67;;;;;;;22.85;30.93;103073.38;5096376;28;20414;-43
2023/01/22 05:19:01;;;;;;;72.18;49.28;;;;;;;22.84;30.63;103076.81;5114612;28;20058;-40
2023/01/22 05:21:29;;;;;;;70.22;49.20;;;;;;;22.86;30.84;103080.41;5097028;28;20020;-40
2023/01/22 05:23:58;;;;;;;71.53;48.28;;;;;;;22.83;30.78;103073.31;5114913;28;20032;-41
2023/01/22 05:26:27;;;;;;;73.65;49.95;;;;;;;22.82;30.88;103068.88;5114763;28;20024;-40
2023/01/22 05:28:55;;;;;;;67.65;47.65;;;;;;;22.81;30.73;103067.09;5114468;28;20023;-41
2023/01/22 05:31:24;;;;;;;76.07;48.05;;;;;;;22.81;30.64;103068.78;5114905;28;20016;-42
2023/01/22 05:33:53;;;;;;;70.50;47.10;;;;;;;22.85;30.90;103075.97;5113726;28;20038;-40
2023/01/22 05:36:21;;;;;;;69.53;46.83;;;;;;;22.84;30.93;103074.19;5114612;28;20088;-41
2023/01/22 05:38:50;;;;;;;73.25;47.70;;;;;;;22.81;30.74;103076.63;5114643;28;20133;-43
2023/01/22 05:41:18;;;;;;;65.18;45.88;;;;;;;22.81;30.54;103074.94;5113950;28;20524;-40
2023/01/22 05:43:47;;;;;;;67.18;46.05;;;;;;;22.81;30.83;103072.31;5114500;28;20024;-40
2023/01/22 05:46:16;;;;;;;68.07;45.53;;;;;;;22.81;31.05;103067.09;5114585;28;20517;-40
2023/01/22 05:48:44;;;;;;;62.63;44.20;;;;;;;22.82;30.52;103062.72;5095936;28;20427;-41
2023/01/22 05:51:13;;;;;;;66.80;46.25;;;;;;;22.81;30.69;103066.16;5110260;28;20026;-40
2023/01/22 05:53:41;;;;;;;67.57;44.35;;;;;;;22.81;30.68;103074.94;5101265;28;20263;-41
2023/01/22 05:56:11;;;;;;;64.55;44.70;;;;;;;22.81;30.79;103074.00;5085647;28;20051;-41
2023/01/22 05:58:39;;;;;;;68.53;46.30;;;;;;;22.77;30.64;103071.22;5097406;28;20028;-42
2023/01/22 06:01:08;;;;;;;63.92;45.40;;;;;;;22.75;30.48;103064.13;5102194;28;20023;-43
2023/01/22 06:03:36;;;;;;;67.60;46.13;;;;;;;22.74;30.55;103065.88;5093424;28;20028;-41
2023/01/22 06:06:07;;;;;;;58.63;43.10;;;;;;;22.75;30.46;103072.00;5093671;28;20024;-41
2023/01/22 06:08:36;;;;;;;68.43;46.60;;;;;;;22.77;30.29;103078.19;5075619;28;20020;-40
2023/01/22 06:11:07;;;;;;;62.13;43.22;;;;;;;22.77;30.26;103079.09;5093568;28;20028;-41
2023/01/22 06:13:36;;;;;;;68.53;45.13;;;;;;;22.76;30.38;103072.06;5093668;28;20054;-44
2023/01/22 06:16:05;;;;;;;64.35;44.63;;;;;;;22.77;30.79;103081.69;5074903;28;20031;-46
2023/01/22 06:18:34;;;;;;;67.57;44.10;;;;;;;22.72;30.50;103077.97;5093428;28;20028;-43
2023/01/22 06:21:04;;;;;;;61.65;43.00;;;;;;;22.73;30.69;103079.78;5093421;28;20026;-40
2023/01/22 06:23:33;;;;;;;63.30;43.05;;;;;;;22.71;30.28;103072.63;5075449;28;20364;-43
2023/01/22 06:26:03;;;;;;;65.05;43.15;;;;;;;22.75;30.28;103088.56;5092809;28;20093;-46
2023/01/22 06:28:32;;;;;;;65.10;43.67;;;;;;;22.72;30.75;103080.59;5093186;28;20030;-41
2023/01/22 06:31:06;;;;;;;63.45;42.83;;;;;;;22.70;30.19;103077.00;5093214;28;20115;-45
2023/01/22 06:33:35;;;;;;;62.95;40.88;;;;;;;22.70;30.67;103073.47;5075512;28;20020;-43
2023/01/22 06:36:05;;;;;;;65.43;44.65;;;;;;;22.72;30.45;103085.81;5093162;28;20478;-40
2023/01/22 06:38:33;;;;;;;62.92;43.03;;;;;;;22.73;30.20;103086.72;5093094;28;20028;-44
2023/01/22 06:41:02;;;;;;;62.05;42.60;;;;;;;22.72;30.24;103087.53;5093036;28;20020;-40
2023/01/22 06:43:31;;;;;;;62.85;44.55;;;;;;;22.69;30.42;103084.75;5093137;28;20024;-41
2023/01/22 06:45:59;;;;;;;62.15;42.83;;;;;;;22.69;30.33;103087.34;5093175;28;20054;-40
2023/01/22 06:48:28;;;;;;;61.92;42.78;;;;;;;22.67;30.35;103091.63;5092637;28;20540;-42
2023/01/22 06:51:01;;;;;;;63.50;42.28;;;;;;;22.66;30.70;103095.06;5092844;28;20035;-40
2023/01/22 06:53:29;;;;;;;67.95;44.28;;;;;;;22.67;30.47;103089.03;5093083;28;20016;-45
2023/01/22 06:56:00;;;;;;;67.50;43.42;;;;;;;22.64;30.31;103091.47;5092284;28;20059;-41
2023/01/22 06:58:29;;;;;;;61.72;43.00;;;;;;;22.64;30.68;103092.34;5092922;28;20051;-40
2023/01/22 07:01:01;;;;;;;67.00;44.30;;;;;;;22.63;30.51;103090.56;5092532;28;20386;-47
2023/01/22 07:03:30;;;;;;;61.83;43.17;;;;;;;22.65;30.21;103098.50;5093170;28;20032;-41
2023/01/22 07:05:59;;;;;;;65.60;44.40;;;;;;;22.67;30.08;103103.00;5092783;28;20439;-41
2023/01/22 07:08:29;;;;;;;68.22;44.78;;;;;;;22.61;30.38;103103.56;5092274;28;20035;-40
2023/01/22 07:10:57;;;;;;;64.68;43.17;;;;;;;22.60;30.42;103113.94;5093199;28;20058;-41
2023/01/22 07:13:26;;;;;;;65.13;44.72;;;;;;;22.64;30.20;103108.06;5092745;28;20095;-40
2023/01/22 07:15:54;;;;;;;64.32;44.95;;;;;;;22.60;30.48;103100.84;5092636;28;20043;-40
2023/01/22 07:18:23;;;;;;;66.15;43.17;;;;;;;22.64;30.33;103112.41;5092563;28;20038;-41
2023/01/22 07:20:51;;;;;;;63.10;41.85;;;;;;;22.64;30.13;103128.09;5092713;28;20142;-41
2023/01/22 07:23:19;;;;;;;57.55;39.88;;;;;;;22.66;30.00;103135.19;5092651;28;20052;-40
2023/01/22 07:25:47;;;;;;;61.83;40.47;;;;;;;22.67;30.11;103131.78;5103354;28;20035;-41
2023/01/22 07:28:16;;;;;;;63.05;40.33;;;;;;;22.64;30.06;103128.09;5115550;28;20023;-40
2023/01/22 07:30:45;;;;;;;61.08;39.80;;;;;;;22.66;29.99;103129.09;5116979;28;20111;-40
2023/01/22 07:33:14;;;;;;;60.97;41.45;;;;;;;22.65;29.85;103130.78;5117059;28;20031;-40
2023/01/22 07:35:43;;;;;;;62.53;41.20;;;;;;;22.62;30.14;103122.75;5117094;28;20038;-40
2023/01/22 07:38:11;;;;;;;57.85;41.05;;;;;;;22.65;30.26;103128.16;5116710;28;20095;-40
2023/01/22 07:40:39;;;;;;;57.70;39.75;;;;;;;22.63;30.53;103139.38;5116651;28;20415;-40
2023/01/22 07:43:07;;;;;;;57.53;38.80;;;;;;;22.67;30.10;103134.38;5116698;28;20035;-42
2023/01/22 07:45:35;;;;;;;63.63;39.83;;;;;;;22.63;29.98;103139.38;5117068;28;20046;-40
2023/01/22 07:48:06;;;;;;;61.50;40.10;;;;;;;22.64;30.31;103146.41;5116751;28;20470;-41
2023/01/22 07:50:35;;;;;;;57.90;40.13;;;;;;;22.65;30.19;103151.72;5098464;28;20386;-39
2023/01/22 07:53:03;;;;;;;60.05;41.85;;;;;;;22.64;30.11;103144.69;5116915;28;20090;-40
2023/01/22 07:55:32;;;;;;;62.53;39.13;;;;;;;22.60;29.95;103145.31;5116395;28;20047;-41
2023/01/22 07:58:02;;;;;;;62.63;39.70;;;;;;;22.63;30.25;103152.47;5116309;28;20497;-40
2023/01/22 08:00:32;;;;;;;56.97;39.35;;;;;;;22.66;29.94;103158.75;5116482;28;20059;-40
2023/01/22 08:03:01;;;;;;;58.92;41.42;;;;;;;22.65;29.87;103161.28;5097856;28;20034;-39
2023/01/22 08:05:29;;;;;;;60.83;38.30;;;;;;;22.63;29.85;103155.06;5116044;28;20031;-40
2023/01/22 08:07:58;;;;;;;56.35;38.00;;;;;;;22.58;30.26;103147.88;5115998;28;20059;-40
2023/01/22 08:10:26;;;;;;;56.40;38.05;;;;;;;22.60;30.28;103147.94;5116568;28;20046;-41
2023/01/22 08:12:54;;;;;;;61.28;40.05;;;;;;;22.65;30.03;103149.09;5116361;28;20026;-40
2023/01/22 08:15:23;;;;;;;57.45;39.30;;;;;;;22.63;30.06;103150.72;5115767;28;20028;-40
2023/01/22 08:17:51;;;;;;;63.05;40.85;;;;;;;22.63;30.28;103149.84;5116020;28;20471;-41
2023/01/22 08:20:20;;;;;;;59.75;41.05;;;;;;;22.67;29.92;103159.66;5115946;28;20478;-40
2023/01/22 08:22:48;;;;;;;62.50;41.20;;;;;;;22.68;30.03;103150.97;5115622;28;20032;-40
2023/01/22 08:25:17;;;;;;;63.63;41.35;;;;;;;22.64;30.24;103144.69;5116296;28;20052;-41
2023/01/22 08:27:46;;;;;;;60.08;40.05;;;;;;;22.68;30.03;103149.28;5116061;28;20028;-41
2023/01/22 08:30:14;;;;;;;60.30;40.70;;;;;;;22.67;30.36;103154.44;5115813;28;20490;-40
2023/01/22 08:32:44;;;;;;;58.05;42.10;;;;;;;22.67;30.19;103155.31;5115955;28;20027;-40
2023/01/22 08:35:14;;;;;;;61.38;41.05;;;;;;;22.68;30.21;103169.28;5115634;28;20068;-42
2023/01/22 08:37:42;;;;;;;57.63;39.58;;;;;;;22.69;30.05;103173.69;5115396;28;20028;-40
2023/01/22 08:40:12;;;;;;;62.25;41.75;;;;;;;22.67;30.18;103183.22;5115884;28;20027;-41
2023/01/22 08:42:41;;;;;;;61.38;40.75;;;;;;;22.68;30.21;103175.44;5097905;28;20028;-40
2023/01/22 08:45:10;;;;;;;58.33;39.80;;;;;;;22.68;30.07;103177.13;5115764;28;20103;-40
2023/01/22 08:47:39;;;;;;;60.65;40.30;;;;;;;22.69;30.04;103168.47;5097547;28;20478;-41
2023/01/22 08:50:07;;;;;;;65.65;40.97;;;;;;;22.72;29.98;103166.03;5115616;28;20042;-41
2023/01/22 08:52:36;;;;;;;60.53;41.47;;;;;;;22.71;30.23;103161.59;5080539;28;20034;-42
2023/01/22 08:55:08;;;;;;;59.58;39.72;;;;;;;22.69;30.04;103166.75;5115330;28;20442;-40
2023/01/22 08:57:37;;;;;;;60.63;38.00;;;;;;;22.73;29.91;103176.59;5115305;28;20107;-40
2023/01/22 09:00:07;;;;;;;56.92;39.15;;;;;;;22.74;30.16;103186.25;5115058;28;20035;-40
2023/01/22 09:02:36;;;;;;;58.83;39.53;;;;;;;22.76;29.90;103181.97;5115248;28;20119;-40
2023/01/22 09:05:04;;;;;;;57.10;38.78;;;;;;;22.77;30.05;103181.13;5115472;28;20024;-40
2023/01/22 09:07:33;;;;;;;54.10;37.70;;;;;;;22.71;30.19;103172.97;5115279;28;20055;-41
2023/01/22 09:10:01;;;;;;;63.63;39.88;;;;;;;22.74;30.30;103177.47;5115303;28;20062;-41
2023/01/22 09:12:30;;;;;;;57.55;37.97;;;;;;;22.75;30.01;103181.88;5115084;28;20068;-40
2023/01/22 09:14:58;;;;;;;56.85;38.22;;;;;;;22.75;30.03;103185.38;5115104;28;20020;-40
2023/01/22 09:17:27;;;;;;;58.67;37.70;;;;;;;22.73;29.82;103193.97;5114849;28;20023;-41
2023/01/22 09:19:56;;;;;;;58.80;38.97;;;;;;;22.75;29.81;103190.63;5096720;28;20028;-41
2023/01/22 09:22:24;;;;;;;55.38;36.22;;;;;;;22.75;29.79;103197.59;5096092;28;20467;-42
2023/01/22 09:24:53;;;;;;;56.72;36.60;;;;;;;22.74;30.03;103190.56;5115084;28;20374;-41
2023/01/22 09:27:22;;;;;;;60.90;39.08;;;;;;;22.73;29.66;103188.75;5114488;28;20368;-41
2023/01/22 09:29:51;;;;;;;66.00;43.63;;;;;;;22.75;30.12;103193.25;5114736;28;20024;-40
2023/01/22 09:32:19;;;;;;;75.43;50.17;;;;;;;22.73;30.32;103183.53;5114665;28;20031;-40
2023/01/22 09:34:46;;;;;;;84.10;56.65;;;;;;;22.78;30.39;103195.13;5114570;28;20401;-41
2023/01/22 09:37:14;;;;;;;110.15;71.60;;;;;;;22.76;30.01;103197.66;5114530;28;20417;-46
2023/01/22 09:39:41;;;;;;;124.40;76.55;;;;;;;22.81;30.22;103202.25;5096114;28;20023;-40
2023/01/22 09:42:16;;;;;;;115.78;78.25;;;;;;;22.80;30.22;103208.28;5114288;28;20390;-41
2023/01/22 09:44:48;;;;;;;128.15;85.57;;;;;;;22.79;30.38;103207.41;5114616;28;20020;-41
2023/01/22 09:47:22;;;;;;;138.45;90.72;;;;;;;22.82;30.40;103207.56;5114563;28;20063;-41
2023/01/22 09:50:00;;;;;;;146.00;97.63;;;;;;;22.80;30.83;103209.22;5113745;28;20479;-41
2023/01/22 09:52:31;;;;;;;152.02;101.07;;;;;;;22.82;30.49;103215.44;5114744;28;20039;-40
2023/01/22 09:55:00;;;;;;;162.50;102.78;;;;;;;22.86;30.47;103212.13;5114296;28;20046;-40
2023/01/22 09:57:28;;;;;;;159.93;107.30;;;;;;;22.81;30.60;103211.00;5114318;28;20151;-40
2023/01/22 09:59:57;;;;;;;166.48;110.35;;;;;;;22.82;30.56;103217.13;5113934;28;20051;-41
2023/01/22 10:02:46;;;;;;;175.35;115.10;;;;;;;22.82;30.67;103211.91;5071499;28;20050;-39
2023/01/22 10:05:24;;;;;;;177.85;115.88;;;;;;;22.87;30.94;103215.66;5074557;28;20476;-41
2023/01/22 10:07:59;;;;;;;185.38;121.28;;;;;;;22.87;30.88;103219.16;5105732;28;20035;-41
2023/01/22 10:10:28;;;;;;;178.75;119.25;;;;;;;22.92;30.67;103208.94;5110868;28;20088;-40
2023/01/22 10:13:01;;;;;;;187.57;123.90;;;;;;;22.97;30.91;103212.72;5108032;28;20409;-40
2023/01/22 10:15:30;;;;;;;197.43;130.23;;;;;;;23.00;31.02;103206.75;5113178;28;20035;-40
2023/01/22 10:17:59;;;;;;;195.57;131.38;;;;;;;22.98;30.81;103205.78;5113050;28;20024;-40
2023/01/22 10:20:28;;;;;;;204.40;132.93;;;;;;;22.96;31.24;103208.28;5075441;28;20036;-40
2023/01/22 10:22:59;;;;;;;204.65;135.50;;;;;;;22.98;31.28;103211.00;5112096;28;20496;-40
2023/01/22 10:25:26;;;;;;;217.75;138.07;;;;;;;22.98;31.04;103217.13;5112502;28;20546;-41
2023/01/22 10:28:01;;;;;;;219.10;141.80;;;;;;;22.97;31.47;103212.72;5084207;28;20020;-40
2023/01/22 10:30:29;;;;;;;210.35;139.27;;;;;;;23.03;31.30;103218.28;5084014;28;20023;-44
2023/01/22 10:33:00;;;;;;;206.52;138.13;;;;;;;23.09;31.38;103220.31;5110498;28;20197;-40
2023/01/22 10:35:30;;;;;;;219.13;145.10;;;;;;;23.09;31.24;103232.50;5112431;28;20038;-41
2023/01/22 10:38:00;;;;;;;205.27;134.73;;;;;;;23.09;31.41;103235.09;5112413;28;20061;-40
2023/01/22 10:40:30;;;;;;;216.07;139.52;;;;;;;23.10;31.26;103231.66;5107990;28;20024;-40
2023/01/22 10:43:02;;;;;;;199.80;135.68;;;;;;;23.13;31.16;103235.38;5093666;28;20035;-40
2023/01/22 10:45:31;;;;;;;215.73;141.80;;;;;;;23.15;31.54;103238.06;5112723;28;20011;-40
2023/01/22 10:48:17;;;;;;;206.70;139.38;;;;;;;23.14;31.49;103236.25;5112631;28;20026;-41
2023/01/22 10:50:46;;;;;;;205.57;135.73;;;;;;;23.26;31.44;103236.03;5110694;28;20032;-40
2023/01/22 10:53:29;;;;;;;216.52;142.10;;;;;;;23.25;31.37;103244.72;5111494;28;20121;-41
2023/01/22 10:56:01;;;;;;;210.48;142.35;;;;;;;23.26;31.36;103244.78;5108442;28;20055;-39
2023/01/22 10:58:31;;;;;;;214.02;142.32;;;;;;;23.25;31.64;103234.25;5094408;28;20061;-41
2023/01/22 11:01:03;;;;;;;199.00;137.27;;;;;;;23.33;31.49;103236.44;5109142;28;20031;-41
2023/01/22 11:03:35;;;;;;;220.63;149.23;;;;;;;23.26;31.31;103213.34;5116251;28;20030;-39
2023/01/22 11:06:13;;;;;;;220.75;151.45;;;;;;;23.28;31.61;103221.31;5116746;28;20031;-42
2023/01/22 11:09:03;;;;;;;236.02;154.25;;;;;;;23.38;31.46;103209.59;5098007;28;20035;-40
2023/01/22 11:11:35;;;;;;;221.55;150.90;;;;;;;23.37;31.25;103213.91;5108385;28;20035;-40
2023/01/22 11:14:10;;;;;;;235.93;156.40;;;;;;;23.39;31.66;103201.78;5116207;28;20378;-40
2023/01/22 11:16:39;;;;;;;222.77;153.05;;;;;;;23.45;31.47;103199.50;5098056;28;20034;-40
2023/01/22 11:19:14;;;;;;;224.00;148.93;;;;;;;23.43;31.47;103195.91;5098119;28;20035;-40
2023/01/22 11:21:49;;;;;;;236.77;151.70;;;;;;;23.45;31.09;103188.09;5091415;28;20019;-39